createdAt,value
2019-01-12T00:00:51.092Z,36.10
2019-01-12T00:03:54.743Z,36.14
2019-01-12T00:06:58.176Z,36.13
2019-01-12T00:10:01.643Z,36.20
2019-01-12T00:13:06.218Z,36.15
2019-01-12T00:16:09.672Z,36.11
2019-01-12T00:19:13.182Z,36.14
2019-01-12T00:22:16.673Z,36.15
2019-01-12T00:25:20.173Z,36.15
2019-01-12T00:28:24.594Z,36.12
2019-01-12T00:31:28.085Z,36.11
2019-01-12T00:34:31.562Z,36.13
2019-01-12T00:37:35.093Z,36.11
2019-01-12T00:40:38.610Z,36.15
2019-01-12T00:43:42.112Z,36.11
2019-01-12T00:46:45.599Z,36.11
2019-01-12T00:49:50.174Z,36.12
2019-01-12T00:52:53.639Z,36.14
2019-01-12T00:55:57.127Z,36.10
2019-01-12T00:59:00.575Z,36.09
2019-01-12T01:02:04.023Z,36.11
2019-01-12T01:05:07.930Z,36.11
2019-01-12T01:08:11.437Z,36.12
2019-01-12T01:11:15.042Z,36.17
2019-01-12T01:14:18.527Z,36.13
2019-01-12T01:17:22.042Z,36.16
2019-01-12T01:20:27.590Z,36.09
2019-01-12T01:23:31.110Z,36.08
2019-01-12T01:26:34.597Z,36.06
2019-01-12T01:29:38.083Z,36.08
2019-01-12T01:32:41.520Z,36.13
2019-01-12T01:35:45.013Z,36.13
2019-01-12T01:38:48.592Z,36.08
2019-01-12T01:41:53.264Z,36.07
2019-01-12T01:44:56.727Z,36.09
2019-01-12T01:48:00.250Z,36.18
2019-01-12T01:51:03.848Z,36.13
2019-01-12T01:54:09.372Z,36.12
2019-01-12T01:57:12.902Z,36.11
2019-01-12T02:00:18.531Z,36.07
2019-01-12T02:03:22.041Z,36.11
2019-01-12T02:06:25.537Z,36.11
2019-01-12T02:09:29.024Z,36.10
2019-01-12T02:12:32.590Z,36.08
2019-01-12T02:15:36.138Z,36.10
2019-01-12T02:18:40.600Z,36.11
2019-01-12T02:21:44.081Z,36.13
2019-01-12T02:24:47.560Z,36.08
2019-01-12T02:27:51.168Z,36.11
2019-01-12T02:30:54.690Z,36.15
2019-01-12T02:33:59.199Z,36.13
2019-01-12T02:37:02.640Z,36.15
2019-01-12T02:40:06.127Z,36.11
2019-01-12T02:43:09.692Z,36.12
2019-01-12T02:46:13.209Z,36.09
2019-01-12T02:49:16.641Z,36.10
2019-01-12T02:52:20.121Z,36.11
2019-01-12T02:55:23.639Z,36.10
2019-01-12T02:58:27.179Z,36.11
2019-01-12T03:01:30.716Z,36.07
2019-01-12T03:04:34.147Z,36.07
2019-01-12T03:07:37.617Z,36.09
2019-01-12T03:10:41.213Z,36.07
2019-01-12T03:13:44.706Z,36.09
2019-01-12T03:16:48.218Z,36.09
2019-01-12T03:19:51.697Z,36.09
2019-01-12T03:22:55.126Z,36.11
2019-01-12T03:25:58.611Z,36.12
2019-01-12T03:29:02.098Z,36.10
2019-01-12T03:32:05.724Z,36.11
2019-01-12T03:35:09.196Z,36.13
2019-01-12T03:38:12.706Z,36.10
2019-01-12T03:41:16.148Z,36.09
2019-01-12T03:44:19.611Z,36.11
2019-01-12T03:47:23.117Z,36.11
2019-01-12T03:50:26.559Z,36.10
2019-01-12T03:53:30.159Z,36.09
2019-01-12T03:56:33.643Z,36.11
2019-01-12T03:59:37.207Z,36.13
2019-01-12T04:02:40.732Z,36.12
2019-01-12T04:05:45.238Z,36.12
2019-01-12T04:08:48.743Z,36.10
2019-01-12T04:11:52.255Z,36.07
2019-01-12T04:14:56.929Z,36.10
2019-01-12T04:18:00.509Z,36.09
2019-01-12T04:21:05.010Z,36.09
2019-01-12T04:24:08.496Z,36.09
2019-01-12T04:27:17.955Z,36.12
2019-01-12T04:30:21.435Z,36.05
2019-01-12T04:33:25.973Z,36.06
2019-01-12T04:36:35.503Z,36.04
2019-01-12T04:39:38.940Z,36.05
2019-01-12T04:42:42.413Z,36.04
2019-01-12T04:45:47.087Z,36.07
2019-01-12T04:48:50.552Z,36.04
2019-01-12T04:51:54.031Z,36.07
2019-01-12T04:54:57.633Z,36.06
2019-01-12T04:58:01.153Z,36.06
2019-01-12T05:01:04.635Z,36.06
2019-01-12T05:04:08.140Z,36.07
2019-01-12T05:07:11.579Z,36.06
2019-01-12T05:10:15.201Z,36.07
2019-01-12T05:13:18.842Z,36.08
2019-01-12T05:16:22.293Z,36.09
2019-01-12T05:19:25.755Z,36.08
2019-01-12T05:22:30.181Z,36.10
2019-01-12T05:25:33.671Z,36.08
2019-01-12T05:28:37.119Z,36.07
2019-01-12T05:31:40.584Z,36.08
2019-01-12T05:34:44.073Z,36.06
2019-01-12T05:37:47.574Z,36.08
2019-01-12T05:40:51.066Z,36.09
2019-01-12T05:43:54.611Z,36.08
2019-01-12T05:46:58.191Z,36.07
2019-01-12T05:50:01.694Z,36.05
2019-01-12T05:53:06.218Z,36.06
2019-01-12T05:56:10.745Z,36.08
2019-01-12T05:59:14.228Z,36.06
2019-01-12T06:02:17.995Z,36.06
2019-01-12T06:05:21.630Z,36.04
2019-01-12T06:08:25.074Z,36.04
2019-01-12T06:11:28.531Z,36.05
2019-01-12T06:14:31.982Z,36.04
2019-01-12T06:17:37.499Z,36.03
2019-01-12T06:20:42.011Z,36.03
2019-01-12T06:23:45.534Z,36.05
2019-01-12T06:26:49.035Z,36.04
2019-01-12T06:29:52.482Z,36.03
2019-01-12T06:32:58.052Z,36.04
2019-01-12T06:36:01.553Z,36.06
2019-01-12T06:39:08.832Z,36.05
2019-01-12T06:42:12.462Z,36.04
2019-01-12T06:45:16.559Z,36.06
2019-01-12T06:48:20.095Z,36.04
2019-01-12T06:51:23.565Z,36.04
2019-01-12T06:54:27.095Z,36.01
2019-01-12T06:57:30.575Z,36.01
2019-01-12T07:00:36.131Z,36.01
2019-01-12T07:03:39.735Z,36.01
2019-01-12T07:06:43.322Z,35.99
2019-01-12T07:09:46.777Z,35.99
2019-01-12T07:12:50.238Z,36.00
2019-01-12T07:15:53.885Z,35.99
2019-01-12T07:18:57.535Z,36.01
2019-01-12T07:22:01.030Z,36.00
2019-01-12T07:25:04.784Z,36.00
2019-01-12T07:28:08.250Z,36.01
2019-01-12T07:31:11.741Z,36.01
2019-01-12T07:34:15.248Z,35.99
2019-01-12T07:37:20.783Z,36.03
2019-01-12T07:40:24.285Z,36.03
2019-01-12T07:43:28.939Z,36.03
2019-01-12T07:46:32.448Z,36.01
2019-01-12T07:49:35.934Z,36.00
2019-01-12T07:52:39.378Z,35.99
2019-01-12T07:55:42.842Z,36.02
2019-01-12T07:58:52.508Z,35.99
2019-01-12T08:01:56.004Z,36.00
2019-01-12T08:05:00.551Z,36.02
2019-01-12T08:08:04.207Z,36.01
2019-01-12T08:11:07.699Z,36.02
2019-01-12T08:14:11.204Z,36.02
2019-01-12T08:17:14.697Z,36.04
2019-01-12T08:20:18.210Z,36.02
2019-01-12T08:23:21.698Z,36.02
2019-01-12T08:26:30.955Z,36.03
2019-01-12T08:29:30.423Z,35.99
2019-01-12T08:32:34.054Z,36.00
2019-01-12T08:35:37.554Z,36.02
2019-01-12T08:38:42.123Z,36.05
2019-01-12T08:41:45.589Z,36.05
2019-01-12T08:44:50.096Z,36.46
2019-01-12T08:47:53.657Z,36.51
2019-01-12T08:50:57.105Z,36.55
2019-01-12T08:54:00.642Z,36.61
2019-01-12T08:57:10.048Z,36.55
2019-01-12T09:00:18.423Z,36.57
2019-01-12T09:03:23.031Z,36.56
2019-01-12T09:06:26.480Z,36.53
2019-01-12T09:09:30.014Z,36.52
2019-01-12T09:12:33.501Z,36.52
2019-01-12T09:15:36.988Z,36.51
2019-01-12T09:18:40.486Z,36.52
2019-01-12T09:21:43.991Z,36.49
2019-01-12T09:24:47.561Z,36.74
2019-01-12T09:27:51.306Z,36.59
2019-01-12T09:30:57.994Z,36.58
2019-01-12T09:34:02.546Z,36.42
2019-01-12T09:37:06.095Z,36.36
2019-01-12T09:40:11.761Z,36.32
2019-01-12T09:43:15.351Z,36.22
2019-01-12T09:46:19.017Z,36.17
2019-01-12T09:49:22.670Z,36.20
2019-01-12T09:52:26.271Z,36.10
2019-01-12T09:55:29.890Z,36.08
2019-01-12T09:58:33.363Z,36.16
2019-01-12T10:01:36.884Z,36.16
2019-01-12T10:04:40.427Z,36.14
2019-01-12T10:07:45.076Z,36.18
2019-01-12T10:10:48.752Z,36.15
2019-01-12T10:13:52.438Z,36.26
2019-01-12T10:16:57.143Z,36.35
2019-01-12T10:20:00.770Z,36.44
2019-01-12T10:23:05.285Z,36.42
2019-01-12T10:26:08.770Z,36.39
2019-01-12T10:29:12.273Z,36.34
2019-01-12T10:32:16.794Z,36.35
2019-01-12T10:35:20.335Z,36.42
2019-01-12T10:38:23.899Z,36.41
2019-01-12T10:41:28.643Z,36.39
2019-01-12T10:44:33.258Z,36.47
2019-01-12T10:47:37.381Z,36.42
2019-01-12T10:50:40.880Z,36.47
2019-01-12T10:53:44.310Z,36.35
2019-01-12T10:56:48.956Z,36.34
2019-01-12T10:59:52.412Z,36.33
2019-01-12T11:02:55.935Z,36.25
2019-01-12T11:05:59.411Z,36.22
2019-01-12T11:09:10.075Z,36.20
2019-01-12T11:12:19.245Z,36.18
2019-01-12T11:15:22.922Z,36.15
2019-01-12T11:18:26.520Z,36.18
2019-01-12T11:21:30.012Z,36.09
2019-01-12T11:24:33.534Z,36.12
2019-01-12T11:27:37.016Z,36.09
2019-01-12T11:30:40.599Z,36.11
2019-01-12T11:33:44.241Z,36.07
2019-01-12T11:36:47.748Z,36.08
2019-01-12T11:39:51.245Z,36.41
2019-01-12T11:42:54.732Z,36.50
2019-01-12T11:45:58.248Z,36.71
2019-01-12T11:49:01.739Z,36.66
2019-01-12T11:52:05.287Z,36.58
2019-01-12T11:55:09.586Z,36.59
2019-01-12T11:58:13.065Z,36.56
2019-01-12T12:01:19.835Z,36.52
2019-01-12T12:04:23.429Z,36.50
2019-01-12T12:07:27.159Z,36.50
2019-01-12T12:10:30.864Z,36.49
2019-01-12T12:13:34.569Z,36.48
2019-01-12T12:16:38.149Z,36.45
2019-01-12T12:19:41.664Z,36.42
2019-01-12T12:22:45.282Z,36.44
2019-01-12T12:25:48.870Z,36.44
2019-01-12T12:28:54.958Z,36.42
2019-01-12T12:31:58.608Z,36.42
2019-01-12T12:35:03.476Z,36.42
2019-01-12T12:38:07.251Z,36.36
2019-01-12T12:41:10.872Z,36.37
2019-01-12T12:44:14.394Z,36.42
2019-01-12T12:47:17.933Z,36.41
2019-01-12T12:50:21.628Z,36.39
2019-01-12T12:53:26.396Z,36.36
2019-01-12T12:56:30.101Z,36.34
2019-01-12T12:59:34.737Z,36.34
2019-01-12T13:02:38.507Z,36.20
2019-01-12T13:05:42.349Z,36.12
2019-01-12T13:08:48.525Z,36.09
2019-01-12T13:11:51.397Z,36.14
2019-01-12T13:14:56.042Z,36.16
2019-01-12T13:17:59.539Z,36.17
2019-01-12T13:21:03.047Z,36.15
2019-01-12T13:24:06.547Z,36.12
2019-01-12T13:27:12.144Z,36.14
2019-01-12T13:30:17.944Z,36.07
2019-01-12T13:33:21.550Z,36.02
2019-01-12T13:36:25.056Z,36.03
2019-01-12T13:39:32.107Z,36.08
2019-01-12T13:42:33.910Z,36.00
2019-01-12T13:45:37.538Z,36.14
2019-01-12T13:48:41.001Z,36.22
2019-01-12T13:51:45.427Z,36.31
2019-01-12T13:54:48.941Z,36.28
2019-01-12T13:57:52.543Z,36.21
2019-01-12T14:00:56.162Z,36.11
2019-01-12T14:03:59.625Z,36.15
2019-01-12T14:07:04.168Z,36.10
2019-01-12T14:10:09.290Z,36.07
2019-01-12T14:13:12.741Z,36.74
2019-01-12T14:16:17.324Z,36.87
2019-01-12T14:19:20.818Z,36.89
2019-01-12T14:22:24.327Z,36.82
2019-01-12T14:25:28.955Z,36.72
2019-01-12T14:28:32.568Z,36.80
2019-01-12T14:31:36.175Z,36.80
2019-01-12T14:34:39.762Z,36.75
2019-01-12T14:37:44.414Z,36.64
2019-01-12T14:40:47.993Z,36.66
2019-01-12T14:43:51.496Z,36.67
2019-01-12T14:46:55.003Z,36.58
2019-01-12T14:49:58.515Z,36.50
2019-01-12T14:53:02.045Z,36.50
2019-01-12T14:56:05.480Z,36.53
2019-01-12T14:59:09.112Z,36.45
2019-01-12T15:02:13.753Z,36.50
2019-01-12T15:05:19.004Z,36.30
2019-01-12T15:08:22.469Z,36.25
2019-01-12T15:11:26.198Z,36.37
2019-01-12T15:14:29.788Z,36.26
2019-01-12T15:17:33.289Z,36.63
2019-01-12T15:20:36.777Z,36.44
2019-01-12T15:23:40.282Z,36.43
2019-01-12T15:26:43.804Z,36.28
2019-01-12T15:29:47.282Z,36.19
2019-01-12T15:32:50.787Z,36.09
2019-01-12T15:35:54.328Z,36.06
2019-01-12T15:39:01.635Z,36.03
2019-01-12T15:42:03.255Z,36.01
2019-01-12T15:45:09.306Z,35.99
2019-01-12T15:48:12.868Z,35.93
2019-01-12T15:51:16.572Z,35.88
2019-01-12T15:54:20.202Z,35.84
2019-01-12T15:57:23.653Z,35.84
2019-01-12T16:00:29.283Z,35.77
2019-01-12T16:03:32.758Z,35.73
2019-01-12T16:06:36.269Z,35.70
2019-01-12T16:09:39.761Z,35.70
2019-01-12T16:12:44.307Z,35.61
2019-01-12T16:15:47.783Z,35.52
2019-01-12T16:18:51.283Z,35.53
2019-01-12T16:21:54.795Z,35.50
2019-01-12T16:24:58.385Z,35.46
2019-01-12T16:28:02.126Z,35.42
2019-01-12T16:31:05.717Z,35.16
2019-01-12T16:34:09.219Z,35.03
2019-01-12T16:37:12.708Z,35.27
2019-01-12T16:40:18.359Z,35.37
2019-01-12T16:43:22.017Z,35.28
2019-01-12T16:46:25.468Z,35.28
2019-01-12T16:49:28.953Z,35.30
2019-01-12T16:52:32.472Z,35.19
2019-01-12T16:55:35.962Z,35.18
2019-01-12T16:58:39.524Z,35.16
2019-01-12T17:01:43.195Z,35.22
2019-01-12T17:04:46.693Z,35.03
2019-01-12T17:07:50.185Z,35.00
2019-01-12T17:10:53.671Z,34.93
2019-01-12T17:13:57.110Z,34.95
2019-01-12T17:17:01.730Z,34.95
2019-01-12T17:20:06.326Z,34.90
2019-01-12T17:23:09.929Z,34.88
2019-01-12T17:26:14.440Z,34.76
2019-01-12T17:29:19.023Z,34.82
2019-01-12T17:32:23.516Z,34.80
2019-01-12T17:35:27.289Z,34.74
2019-01-12T17:38:30.948Z,34.63
2019-01-12T17:41:34.420Z,34.65
2019-01-12T17:44:38.940Z,34.55
2019-01-12T17:47:42.471Z,34.46
2019-01-12T17:50:46.040Z,34.65
2019-01-12T17:53:49.649Z,34.61
2019-01-12T17:56:53.081Z,34.61
2019-01-12T17:59:56.658Z,34.67
2019-01-12T18:03:01.289Z,34.57
2019-01-12T18:06:04.882Z,34.46
2019-01-12T18:09:09.415Z,34.23
2019-01-12T18:12:12.906Z,34.45
2019-01-12T18:15:16.437Z,34.45
2019-01-12T18:18:19.909Z,34.42
2019-01-12T18:21:23.412Z,34.41
2019-01-12T18:24:26.905Z,34.43
2019-01-12T18:27:30.405Z,34.34
2019-01-12T18:30:33.951Z,34.34
2019-01-12T18:33:37.432Z,34.32
2019-01-12T18:36:40.913Z,34.28
2019-01-12T18:39:45.441Z,34.30
2019-01-12T18:42:49.964Z,34.34
2019-01-12T18:45:53.463Z,34.09
2019-01-12T18:48:56.988Z,34.32
2019-01-12T18:52:01.553Z,34.26
2019-01-12T18:55:05.251Z,34.25
2019-01-12T18:58:08.697Z,34.19
2019-01-12T19:01:12.209Z,34.24
2019-01-12T19:04:16.737Z,34.20
2019-01-12T19:07:20.221Z,34.21
2019-01-12T19:10:23.878Z,34.09
2019-01-12T19:13:27.442Z,34.19
2019-01-12T19:16:30.926Z,34.15
2019-01-12T19:19:35.466Z,34.07
2019-01-12T19:22:38.892Z,34.03
2019-01-12T19:25:42.484Z,34.02
2019-01-12T19:28:46.034Z,34.07
2019-01-12T19:31:49.665Z,34.08
2019-01-12T19:34:53.165Z,34.04
2019-01-12T19:38:02.610Z,33.94
2019-01-12T19:41:06.115Z,33.92
2019-01-12T19:44:09.610Z,33.99
2019-01-12T19:47:13.205Z,34.02
2019-01-12T19:50:18.888Z,33.91
2019-01-12T19:53:23.394Z,33.79
2019-01-12T19:56:27.001Z,33.94
2019-01-12T19:59:30.447Z,33.95
2019-01-12T20:02:34.911Z,33.92
2019-01-12T20:05:38.418Z,33.95
2019-01-12T20:08:43.024Z,33.80
2019-01-12T20:11:46.634Z,33.85
2019-01-12T20:14:50.216Z,33.91
2019-01-12T20:17:53.849Z,33.83
2019-01-12T20:20:57.363Z,33.85
2019-01-12T20:24:00.912Z,33.84
2019-01-12T20:27:04.557Z,33.82
2019-01-12T20:30:13.918Z,33.75
2019-01-12T20:33:23.851Z,33.67
2019-01-12T20:37:00.353Z,33.61
2019-01-12T20:40:22.661Z,33.58
2019-01-12T20:43:54.343Z,33.44
2019-01-12T20:47:09.144Z,33.49
2019-01-12T20:50:38.605Z,33.78
2019-01-12T20:54:19.702Z,33.80
2019-01-12T20:57:41.782Z,33.77
2019-01-12T21:01:25.910Z,33.88
2019-01-12T21:05:25.289Z,33.87
2019-01-12T21:09:05.960Z,33.88
2019-01-12T21:12:50.005Z,33.91
2019-01-12T21:16:01.342Z,33.87
2019-01-12T21:19:04.914Z,33.84
2019-01-12T21:22:09.423Z,33.73
2019-01-12T21:25:14.987Z,33.79
2019-01-12T21:28:18.476Z,33.77
2019-01-12T21:31:24.146Z,33.81
2019-01-12T21:34:27.844Z,33.72
2019-01-12T21:37:31.447Z,33.75
2019-01-12T21:40:35.976Z,33.61
2019-01-12T21:43:39.456Z,33.76
2019-01-12T21:46:42.976Z,33.71
2019-01-12T21:49:48.564Z,33.55
2019-01-12T21:52:52.308Z,33.66
2019-01-12T21:55:56.949Z,33.58
2019-01-12T21:59:02.518Z,33.64
2019-01-12T22:02:06.130Z,33.58
2019-01-12T22:05:10.055Z,33.69
2019-01-12T22:08:13.601Z,33.62
2019-01-12T22:11:17.236Z,33.67
2019-01-12T22:14:20.860Z,33.73
2019-01-12T22:17:24.356Z,33.50
2019-01-12T22:20:27.844Z,33.49
2019-01-12T22:23:33.032Z,33.49
2019-01-12T22:26:36.664Z,33.51
2019-01-12T22:29:40.160Z,33.56
2019-01-12T22:32:43.715Z,33.61
2019-01-12T22:35:48.196Z,33.61
2019-01-12T22:38:51.676Z,33.62
2019-01-12T22:41:55.123Z,33.78
2019-01-12T22:44:58.589Z,33.79
2019-01-12T22:48:02.127Z,33.78
2019-01-12T22:51:06.749Z,33.93
2019-01-12T22:54:12.257Z,33.95
2019-01-12T22:57:16.800Z,34.01
2019-01-12T23:00:31.341Z,33.99
2019-01-12T23:03:34.883Z,34.03
2019-01-12T23:06:38.370Z,34.04
2019-01-12T23:09:43.890Z,34.17
2019-01-12T23:12:47.412Z,34.27
2019-01-12T23:15:50.905Z,34.21
2019-01-12T23:18:54.393Z,34.41
2019-01-12T23:21:58.924Z,34.42
2019-01-12T23:25:02.441Z,34.50
2019-01-12T23:28:05.919Z,34.56
2019-01-12T23:31:09.443Z,34.55
2019-01-12T23:34:12.949Z,34.63
2019-01-12T23:37:16.381Z,34.67
2019-01-12T23:40:19.873Z,34.69
2019-01-12T23:43:23.438Z,34.77
2019-01-12T23:46:26.937Z,34.75
2019-01-12T23:49:30.438Z,34.82
2019-01-12T23:52:33.969Z,34.79
2019-01-12T23:55:37.435Z,34.94
2019-01-12T23:58:40.922Z,34.94
